createdAt,value
2023-08-08T00:04:02.648Z,15.21
2023-08-08T00:14:03.257Z,15.09
2023-08-08T00:24:03.930Z,14.98
2023-08-08T00:34:04.419Z,14.83
2023-08-08T00:44:04.995Z,14.78
2023-08-08T00:54:05.530Z,14.78
2023-08-08T01:04:06.119Z,14.68
2023-08-08T01:14:06.641Z,14.51
2023-08-08T01:24:07.226Z,14.51
2023-08-08T01:34:07.779Z,14.42
2023-08-08T01:44:08.451Z,14.37
2023-08-08T01:54:08.966Z,14.39
2023-08-08T02:04:09.531Z,14.50
2023-08-08T02:14:10.081Z,14.45
2023-08-08T02:24:10.729Z,14.39
2023-08-08T02:34:18.223Z,14.45
2023-08-08T02:44:11.782Z,14.35
2023-08-08T02:54:12.359Z,14.18
2023-08-08T03:04:12.971Z,14.12
2023-08-08T03:14:13.392Z,14.04
2023-08-08T03:24:13.924Z,14.00
2023-08-08T03:34:14.444Z,14.02
2023-08-08T03:44:14.945Z,14.02
2023-08-08T03:54:15.416Z,14.09
2023-08-08T04:04:16.009Z,14.06
2023-08-08T04:14:16.454Z,14.20
2023-08-08T04:24:16.984Z,14.18
2023-08-08T04:34:17.471Z,14.21
2023-08-08T04:44:17.985Z,14.29
2023-08-08T04:54:18.487Z,14.94
2023-08-08T05:04:18.999Z,15.96
2023-08-08T05:14:19.483Z,16.28
2023-08-08T05:24:20.005Z,16.56
2023-08-08T05:34:20.481Z,16.17
2023-08-08T05:44:20.993Z,16.73
2023-08-08T05:54:21.474Z,16.83
2023-08-08T06:04:21.980Z,16.09
2023-08-08T06:14:22.468Z,16.39
2023-08-08T06:24:23.003Z,16.39
2023-08-08T06:34:23.539Z,16.45
2023-08-08T06:44:24.173Z,16.60
2023-08-08T06:54:24.607Z,16.39
2023-08-08T07:04:25.225Z,16.61
2023-08-08T07:14:25.675Z,16.91
2023-08-08T07:24:26.195Z,17.33
2023-08-08T07:34:26.690Z,17.08
2023-08-08T07:44:27.238Z,17.25
2023-08-08T07:54:27.703Z,17.71
2023-08-08T08:04:28.301Z,17.97
2023-08-08T08:14:28.779Z,18.23
2023-08-08T08:24:29.381Z,18.41
2023-08-08T08:34:36.828Z,18.39
2023-08-08T08:44:30.352Z,18.78
2023-08-08T08:54:30.912Z,18.75
2023-08-08T09:04:31.479Z,18.88
2023-08-08T09:14:31.976Z,19.18
2023-08-08T09:24:32.495Z,19.16
2023-08-08T09:34:32.998Z,18.98
2023-08-08T09:44:33.511Z,18.85
2023-08-08T09:54:33.990Z,19.04
2023-08-08T10:04:34.613Z,18.58
2023-08-08T10:14:35.069Z,18.30
2023-08-08T10:24:35.727Z,18.35
2023-08-08T10:34:36.192Z,18.66
2023-08-08T10:44:36.716Z,19.29
2023-08-08T10:54:37.208Z,18.37
2023-08-08T11:04:37.728Z,18.67
2023-08-08T11:14:38.214Z,19.50
2023-08-08T11:24:38.736Z,19.87
2023-08-08T11:34:39.214Z,19.56
2023-08-08T11:44:39.713Z,18.47
2023-08-08T11:54:40.180Z,19.11
2023-08-08T12:04:40.690Z,19.66
2023-08-08T12:14:51.270Z,20.05
2023-08-08T12:24:43.063Z,20.39
2023-08-08T12:34:42.543Z,20.50
2023-08-08T12:44:43.084Z,20.36
2023-08-08T12:54:43.570Z,19.91
2023-08-08T13:04:44.086Z,20.32
2023-08-08T13:14:44.571Z,20.99
2023-08-08T13:24:45.176Z,21.10
2023-08-08T13:34:45.629Z,20.74
2023-08-08T13:44:46.156Z,20.02
2023-08-08T13:54:46.637Z,18.21
2023-08-08T14:04:47.256Z,18.21
2023-08-08T14:14:47.690Z,18.91
2023-08-08T14:24:48.229Z,19.21
2023-08-08T14:34:48.704Z,19.32
2023-08-08T14:44:49.323Z,19.44
2023-08-08T14:54:49.754Z,19.31
2023-08-08T15:04:50.845Z,18.94
2023-08-08T15:14:50.900Z,18.66
2023-08-08T15:24:51.429Z,18.30
2023-08-08T15:34:51.896Z,17.92
2023-08-08T15:44:52.548Z,16.39
2023-08-08T15:54:53.018Z,16.49
2023-08-08T16:04:53.528Z,16.56
2023-08-08T16:14:54.004Z,16.78
2023-08-08T16:24:54.619Z,16.75
2023-08-08T16:34:55.069Z,16.42
2023-08-08T16:45:02.585Z,16.31
2023-08-08T16:54:56.035Z,16.45
2023-08-08T17:04:56.637Z,16.48
2023-08-08T17:14:57.088Z,16.30
2023-08-08T17:24:57.615Z,16.24
2023-08-08T17:34:58.117Z,16.17
2023-08-08T17:44:58.627Z,16.20
2023-08-08T17:54:59.108Z,16.17
2023-08-08T18:04:59.728Z,16.08
2023-08-08T18:15:00.243Z,16.23
2023-08-08T18:25:00.803Z,16.30
2023-08-08T18:35:01.263Z,16.21
2023-08-08T18:45:01.794Z,16.00
2023-08-08T18:55:02.290Z,15.90
2023-08-08T19:05:02.813Z,15.97
2023-08-08T19:15:03.276Z,15.97
2023-08-08T19:25:03.918Z,16.00
2023-08-08T19:35:04.418Z,16.08
2023-08-08T19:45:04.987Z,16.02
2023-08-08T19:55:05.526Z,16.05
2023-08-08T20:05:06.106Z,16.04
2023-08-08T20:15:06.648Z,15.89
2023-08-08T20:25:07.235Z,15.76
2023-08-08T20:35:07.760Z,15.75
2023-08-08T20:45:08.336Z,15.41
2023-08-08T20:55:08.883Z,15.43
2023-08-08T21:05:09.457Z,15.49
2023-08-08T21:15:09.987Z,15.47
2023-08-08T21:25:10.570Z,15.17
2023-08-08T21:35:11.120Z,14.94
2023-08-08T21:45:11.689Z,14.83
2023-08-08T21:55:12.218Z,14.65
2023-08-08T22:05:12.800Z,14.72
2023-08-08T22:15:13.331Z,14.86
2023-08-08T22:25:14.001Z,14.81
2023-08-08T22:35:14.507Z,14.81
2023-08-08T22:45:22.059Z,14.83
2023-08-08T22:55:15.564Z,14.83
2023-08-08T23:05:16.127Z,14.77
2023-08-08T23:15:16.673Z,14.75
2023-08-08T23:25:17.416Z,14.80
2023-08-08T23:35:18.005Z,14.86
2023-08-08T23:45:18.616Z,14.84
2023-08-08T23:55:19.130Z,14.70
